createdAt,value
2022-09-05T00:00:11.636Z,4.65
2022-09-05T00:02:52.987Z,5.07
2022-09-05T00:05:51.007Z,5.05
2022-09-05T00:08:32.122Z,4.80
2022-09-05T00:11:40.868Z,4.90
2022-09-05T00:15:16.143Z,4.97
2022-09-05T00:20:16.837Z,4.78
2022-09-05T00:22:31.778Z,4.15
2022-09-05T00:24:25.585Z,4.57
2022-09-05T00:27:02.251Z,5.15
2022-09-05T00:30:40.651Z,5.35
2022-09-05T00:32:38.100Z,5.63
2022-09-05T00:35:25.987Z,5.15
2022-09-05T00:37:54.375Z,4.85
2022-09-05T00:40:27.056Z,4.90
2022-09-05T00:42:57.966Z,5.45
2022-09-05T00:45:48.161Z,5.18
2022-09-05T00:48:22.818Z,4.82
2022-09-05T00:51:02.887Z,5.15
2022-09-05T00:53:57.036Z,5.25
2022-09-05T00:56:33.721Z,5.28
2022-09-05T00:59:52.050Z,5.45
2022-09-05T01:02:49.830Z,5.38
2022-09-05T01:05:33.749Z,4.93
2022-09-05T01:08:24.940Z,5.57
2022-09-05T01:11:16.030Z,6.00
2022-09-05T01:13:49.810Z,5.50
2022-09-05T01:16:19.223Z,5.53
2022-09-05T01:19:05.508Z,4.93
2022-09-05T01:22:08.846Z,5.40
2022-09-05T01:24:51.874Z,5.47
2022-09-05T01:27:35.196Z,5.80
2022-09-05T01:30:31.981Z,5.40
2022-09-05T01:33:14.982Z,5.28
2022-09-05T01:36:03.834Z,5.10
2022-09-05T01:40:11.819Z,5.15
2022-09-05T01:42:07.180Z,5.28
2022-09-05T01:44:43.608Z,5.93
2022-09-05T01:47:41.899Z,5.22
2022-09-05T01:50:13.590Z,5.60
2022-09-05T01:52:57.462Z,5.43
2022-09-05T01:56:04.203Z,5.30
2022-09-05T01:58:48.451Z,5.38
2022-09-05T02:01:32.995Z,6.10
2022-09-05T02:04:11.625Z,5.70
2022-09-05T02:10:28.247Z,5.07
2022-09-05T02:13:11.416Z,5.35
2022-09-05T02:15:55.270Z,5.18
2022-09-05T02:18:46.817Z,5.63
2022-09-05T02:21:25.548Z,6.05
2022-09-05T02:24:09.270Z,5.32
2022-09-05T02:26:54.209Z,5.38
2022-09-05T02:29:35.116Z,5.63
2022-09-05T02:32:24.679Z,5.93
2022-09-05T02:35:04.028Z,5.00
2022-09-05T02:40:21.988Z,5.68
2022-09-05T02:45:08.640Z,6.38
2022-09-05T02:45:17.257Z,7.00
2022-09-05T02:47:54.539Z,7.60
2022-09-05T02:54:07.905Z,6.25
2022-09-05T02:57:28.021Z,7.20
2022-09-05T02:57:33.869Z,6.40
2022-09-05T02:59:36.309Z,6.95
2022-09-05T03:02:25.211Z,5.95
2022-09-05T03:05:22.661Z,6.70
2022-09-05T03:07:51.876Z,6.38
2022-09-05T03:11:00.871Z,5.90
2022-09-05T03:13:38.920Z,5.97
2022-09-05T03:16:56.077Z,5.72
2022-09-05T03:19:46.212Z,5.65
2022-09-05T03:22:25.986Z,5.72
2022-09-05T03:25:04.622Z,5.22
2022-09-05T03:27:54.112Z,6.00
2022-09-05T03:30:32.824Z,5.57
2022-09-05T03:33:07.321Z,5.95
2022-09-05T03:35:33.761Z,5.90
2022-09-05T03:38:20.154Z,6.10
2022-09-05T03:41:23.863Z,6.15
2022-09-05T03:44:34.362Z,6.00
2022-09-05T03:47:11.350Z,6.80
2022-09-05T03:52:10.457Z,6.50
2022-09-05T03:57:11.959Z,6.97
2022-09-05T03:57:18.323Z,6.35
2022-09-05T03:59:22.950Z,6.45
2022-09-05T04:05:08.919Z,6.75
2022-09-05T04:08:16.467Z,6.35
2022-09-05T04:08:18.261Z,6.10
2022-09-05T04:10:53.601Z,5.68
2022-09-05T04:13:23.077Z,5.57
2022-09-05T04:16:03.247Z,6.75
2022-09-05T04:18:42.777Z,7.10
2022-09-05T04:21:22.002Z,6.97
2022-09-05T04:24:00.556Z,7.20
2022-09-05T04:26:51.295Z,6.43
2022-09-05T04:29:51.717Z,7.68
2022-09-05T04:32:46.224Z,7.18
2022-09-05T04:35:15.340Z,6.80
2022-09-05T04:37:55.337Z,6.80
2022-09-05T04:40:47.623Z,7.32
2022-09-05T04:43:23.395Z,6.47
2022-09-05T04:46:07.666Z,6.65
2022-09-05T04:48:42.167Z,6.75
2022-09-05T04:51:26.145Z,6.50
2022-09-05T04:54:19.783Z,7.10
2022-09-05T04:56:52.938Z,6.18
2022-09-05T05:02:31.473Z,6.15
2022-09-05T05:06:09.241Z,6.70
2022-09-05T05:06:10.313Z,7.35
2022-09-05T05:08:42.981Z,6.28
2022-09-05T05:16:39.787Z,6.18
2022-09-05T05:18:06.723Z,5.60
2022-09-05T05:20:42.882Z,5.68
2022-09-05T05:23:18.807Z,6.13
2022-09-05T05:25:58.208Z,7.00
2022-09-05T05:28:28.854Z,6.20
2022-09-05T05:31:07.286Z,6.05
2022-09-05T05:36:04.212Z,6.50
2022-09-05T05:39:11.022Z,7.13
2022-09-05T05:41:43.962Z,6.60
2022-09-05T05:44:16.406Z,5.63
2022-09-05T05:47:15.924Z,6.15
2022-09-05T05:49:50.588Z,6.68
2022-09-05T05:52:38.160Z,6.82
2022-09-05T05:55:50.466Z,6.97
2022-09-05T05:58:54.860Z,6.50
2022-09-05T06:01:30.249Z,7.00
2022-09-05T06:04:25.315Z,6.80
2022-09-05T06:07:03.892Z,7.28
2022-09-05T06:14:55.185Z,6.82
2022-09-05T06:15:06.063Z,8.88
2022-09-05T06:16:25.814Z,6.22
2022-09-05T06:19:16.339Z,6.82
2022-09-05T06:22:08.619Z,6.55
2022-09-05T06:24:45.429Z,7.72
2022-09-05T06:27:23.988Z,7.50
2022-09-05T06:29:55.619Z,6.63
2022-09-05T06:32:58.437Z,6.75
2022-09-05T06:35:34.316Z,7.20
2022-09-05T06:38:39.250Z,6.50
2022-09-05T06:41:43.090Z,7.00
2022-09-05T06:44:47.935Z,5.72
2022-09-05T06:47:24.266Z,5.45
2022-09-05T06:50:27.362Z,4.63
2022-09-05T06:53:33.537Z,6.72
2022-09-05T06:56:15.797Z,4.93
2022-09-05T06:59:20.512Z,4.80
2022-09-05T07:02:00.846Z,4.63
2022-09-05T07:05:23.799Z,4.30
2022-09-05T07:07:45.994Z,4.18
2022-09-05T07:10:39.005Z,3.63
2022-09-05T07:13:15.465Z,3.42
2022-09-05T07:16:04.119Z,3.85
2022-09-05T07:18:43.662Z,12.52
2022-09-05T07:21:26.055Z,5.63
2022-09-05T07:24:08.978Z,3.53
2022-09-05T07:26:53.468Z,3.30
2022-09-05T07:29:27.654Z,2.80
2022-09-05T07:31:56.335Z,3.22
2022-09-05T07:34:31.529Z,3.30
2022-09-05T07:37:14.535Z,3.15
2022-09-05T07:39:57.944Z,3.70
2022-09-05T07:42:36.882Z,6.10
2022-09-05T07:45:10.723Z,4.68
2022-09-05T07:48:00.295Z,2.78
2022-09-05T07:55:40.588Z,2.88
2022-09-05T07:57:08.248Z,2.47
2022-09-05T07:57:17.489Z,2.50
2022-09-05T07:58:54.259Z,2.60
2022-09-05T08:01:22.737Z,2.60
2022-09-05T08:03:56.005Z,2.25
2022-09-05T08:07:14.378Z,2.30
2022-09-05T08:10:02.287Z,2.30
2022-09-05T08:12:15.978Z,2.00
2022-09-05T08:15:01.564Z,1.93
2022-09-05T08:17:33.180Z,1.83
2022-09-05T08:20:09.455Z,2.45
2022-09-05T08:23:04.489Z,2.20
2022-09-05T08:25:56.748Z,13.32
2022-09-05T08:28:38.895Z,3.88
2022-09-05T08:31:43.217Z,2.60
2022-09-05T08:34:32.797Z,2.10
2022-09-05T08:37:12.444Z,1.77
2022-09-05T08:39:42.926Z,1.92
2022-09-05T08:42:15.962Z,1.83
2022-09-05T08:46:40.604Z,1.88
2022-09-05T08:48:04.776Z,1.60
2022-09-05T08:50:59.043Z,1.80
2022-09-05T08:53:45.598Z,1.90
2022-09-05T08:56:25.276Z,1.40
2022-09-05T08:59:27.469Z,1.40
2022-09-05T09:02:44.835Z,1.27
2022-09-05T09:05:20.571Z,1.50
2022-09-05T09:08:08.513Z,2.22
2022-09-05T09:10:46.299Z,2.45
2022-09-05T09:13:23.488Z,1.75
2022-09-05T09:16:06.473Z,2.33
2022-09-05T09:18:48.262Z,2.00
2022-09-05T09:21:30.011Z,1.60
2022-09-05T09:24:09.961Z,1.60
2022-09-05T09:26:42.782Z,33.58
2022-09-05T09:29:13.223Z,8.55
2022-09-05T09:32:07.229Z,3.05
2022-09-05T09:35:01.090Z,1.75
2022-09-05T09:37:59.940Z,1.60
2022-09-05T09:40:47.431Z,1.40
2022-09-05T09:43:40.292Z,1.40
2022-09-05T09:46:31.240Z,1.65
2022-09-05T09:49:22.649Z,1.23
2022-09-05T09:52:21.011Z,1.38
2022-09-05T09:55:39.825Z,1.33
2022-09-05T09:58:36.644Z,2.67
2022-09-05T10:01:36.914Z,1.33
2022-09-05T10:07:38.193Z,1.42
2022-09-05T10:10:50.760Z,1.30
2022-09-05T10:11:00.445Z,1.50
2022-09-05T10:13:51.380Z,1.50
2022-09-05T10:16:53.396Z,1.50
2022-09-05T10:23:15.860Z,1.70
2022-09-05T10:26:09.006Z,1.15
2022-09-05T10:28:53.695Z,1.40
2022-09-05T10:32:50.626Z,1.88
2022-09-05T10:35:10.271Z,1.45
2022-09-05T10:37:14.033Z,1.40
2022-09-05T10:43:00.953Z,1.27
2022-09-05T10:45:36.298Z,1.27
2022-09-05T10:48:19.666Z,1.40
2022-09-05T10:51:00.538Z,1.40
2022-09-05T10:53:43.338Z,1.33
2022-09-05T10:56:22.999Z,1.67
2022-09-05T11:01:31.909Z,1.52
2022-09-05T11:02:30.288Z,1.40
2022-09-05T11:05:22.283Z,1.17
2022-09-05T11:08:15.456Z,1.20
2022-09-05T11:10:51.063Z,1.13
2022-09-05T11:13:42.085Z,1.38
2022-09-05T11:16:16.384Z,1.42
2022-09-05T11:18:55.049Z,1.30
2022-09-05T11:21:29.280Z,1.35
2022-09-05T11:24:00.748Z,1.30
2022-09-05T11:26:43.845Z,1.27
2022-09-05T11:29:21.676Z,1.15
2022-09-05T11:36:27.541Z,1.30
2022-09-05T11:39:46.111Z,1.52
2022-09-05T11:40:09.610Z,1.30
2022-09-05T11:41:17.081Z,1.02
2022-09-05T11:46:54.201Z,1.00
2022-09-05T11:49:54.939Z,1.20
2022-09-05T11:52:52.870Z,1.52
2022-09-05T11:58:43.745Z,1.10
2022-09-05T12:01:44.172Z,1.02
2022-09-05T12:05:49.247Z,1.10
2022-09-05T12:08:01.813Z,1.13
2022-09-05T12:11:05.499Z,1.10
2022-09-05T12:13:46.242Z,1.10
2022-09-05T12:16:19.628Z,1.10
2022-09-05T12:19:06.184Z,1.17
2022-09-05T12:22:02.498Z,1.25
2022-09-05T12:25:24.505Z,0.93
2022-09-05T12:27:46.000Z,1.20
2022-09-05T12:30:22.713Z,0.80
2022-09-05T12:36:06.598Z,1.10
2022-09-05T12:40:25.467Z,1.10
2022-09-05T12:40:55.637Z,1.10
2022-09-05T12:42:57.257Z,1.00
2022-09-05T12:45:50.124Z,1.10
2022-09-05T12:48:38.497Z,1.20
2022-09-05T12:51:09.017Z,1.25
2022-09-05T12:53:49.380Z,1.38
2022-09-05T13:00:26.264Z,1.20
2022-09-05T13:03:04.680Z,1.20
2022-09-05T13:03:06.816Z,1.88
2022-09-05T13:05:26.871Z,1.20
2022-09-05T13:07:58.272Z,1.15
2022-09-05T13:11:00.354Z,1.33
2022-09-05T13:14:55.288Z,1.30
2022-09-05T13:16:23.762Z,1.08
2022-09-05T13:19:02.189Z,1.20
2022-09-05T13:21:30.982Z,1.05
2022-09-05T13:24:27.663Z,0.95
2022-09-05T13:27:09.533Z,1.08
2022-09-05T13:31:34.854Z,1.35
2022-09-05T13:37:55.827Z,1.15
2022-09-05T13:38:15.757Z,1.70
2022-09-05T13:38:48.619Z,1.23
2022-09-05T13:41:28.664Z,1.23
2022-09-05T13:44:26.802Z,1.20
2022-09-05T13:47:28.765Z,1.20
2022-09-05T13:50:22.353Z,1.10
2022-09-05T13:52:55.107Z,1.23
2022-09-05T13:55:29.669Z,1.50
2022-09-05T13:57:59.310Z,1.20
2022-09-05T14:00:55.916Z,1.30
2022-09-05T14:04:07.371Z,1.17
2022-09-05T14:06:45.404Z,1.15
2022-09-05T14:09:43.258Z,1.45
2022-09-05T14:12:31.461Z,1.02
2022-09-05T14:15:14.332Z,4.43
2022-09-05T14:18:02.294Z,1.65
2022-09-05T14:21:18.447Z,1.45
2022-09-05T14:24:16.972Z,1.05
2022-09-05T14:27:00.438Z,1.30
2022-09-05T14:29:40.838Z,1.30
2022-09-05T14:37:35.846Z,1.13
2022-09-05T14:37:50.673Z,1.30
2022-09-05T14:38:40.123Z,1.90
2022-09-05T14:41:45.760Z,1.50
2022-09-05T14:44:58.982Z,1.20
2022-09-05T14:47:43.115Z,1.23
2022-09-05T14:50:28.084Z,1.23
2022-09-05T14:56:19.488Z,1.10
2022-09-05T15:02:44.081Z,1.02
2022-09-05T15:02:48.386Z,1.10
2022-09-05T15:04:37.502Z,1.05
2022-09-05T15:07:23.972Z,1.10
2022-09-05T15:12:15.013Z,1.27
2022-09-05T15:13:20.248Z,1.10
2022-09-05T15:16:06.555Z,1.25
2022-09-05T15:18:43.430Z,1.20
2022-09-05T15:21:33.113Z,1.30
2022-09-05T15:24:14.858Z,1.15
2022-09-05T15:26:58.874Z,1.30
2022-09-05T15:29:30.747Z,1.50
2022-09-05T15:32:26.008Z,1.65
2022-09-05T15:34:55.331Z,1.50
2022-09-05T15:37:37.702Z,1.10
2022-09-05T15:40:22.372Z,1.42
2022-09-05T15:43:02.115Z,1.58
2022-09-05T15:45:32.639Z,1.20
2022-09-05T15:48:08.722Z,1.15
2022-09-05T15:50:42.156Z,1.25
2022-09-05T15:53:20.547Z,1.10
2022-09-05T15:55:52.346Z,1.23
2022-09-05T15:58:27.249Z,1.10
2022-09-05T16:01:12.354Z,1.40
2022-09-05T16:07:04.111Z,1.75
2022-09-05T16:10:37.775Z,1.40
2022-09-05T16:10:40.248Z,1.23
2022-09-05T16:12:18.911Z,1.42
2022-09-05T16:15:55.225Z,1.20
2022-09-05T16:23:18.357Z,1.20
2022-09-05T16:23:34.730Z,1.33
2022-09-05T16:23:41.453Z,1.27
2022-09-05T16:26:25.052Z,1.40
2022-09-05T16:29:01.462Z,1.20
2022-09-05T16:31:48.394Z,1.60
2022-09-05T16:34:30.115Z,1.40
2022-09-05T16:37:08.411Z,1.50
2022-09-05T16:39:39.907Z,1.42
2022-09-05T16:42:17.719Z,1.30
2022-09-05T16:44:58.531Z,1.20
2022-09-05T16:47:31.092Z,1.30
2022-09-05T16:50:34.356Z,1.30
2022-09-05T16:53:01.221Z,1.55
2022-09-05T16:55:43.390Z,1.75
2022-09-05T16:58:14.550Z,1.75
2022-09-05T17:00:57.357Z,1.15
2022-09-05T17:03:55.882Z,1.27
2022-09-05T17:06:45.678Z,1.48
2022-09-05T17:09:24.729Z,1.55
2022-09-05T17:12:01.477Z,1.23
2022-09-05T17:14:35.072Z,1.45
2022-09-05T17:17:55.263Z,1.50
2022-09-05T17:20:07.575Z,1.50
2022-09-05T17:24:45.164Z,1.67
2022-09-05T17:29:24.828Z,1.90
2022-09-05T17:29:49.004Z,2.22
2022-09-05T17:31:55.662Z,1.73
2022-09-05T17:34:41.990Z,1.50
2022-09-05T17:37:35.986Z,1.75
2022-09-05T17:40:22.895Z,1.95
2022-09-05T17:42:53.888Z,2.08
2022-09-05T17:45:29.924Z,1.80
2022-09-05T17:47:57.929Z,1.58
2022-09-05T17:50:28.045Z,1.90
2022-09-05T17:53:26.941Z,1.60
2022-09-05T17:56:05.287Z,2.17
2022-09-05T17:58:49.472Z,1.98
2022-09-05T18:01:17.038Z,2.30
2022-09-05T18:03:45.831Z,2.10
2022-09-05T18:06:15.313Z,1.98
2022-09-05T18:11:44.795Z,2.08
2022-09-05T18:14:24.932Z,2.08
2022-09-05T18:17:37.482Z,3.03
2022-09-05T18:19:43.954Z,1.80
2022-09-05T18:22:33.019Z,1.90
2022-09-05T18:25:30.572Z,2.38
2022-09-05T18:28:05.259Z,2.38
2022-09-05T18:33:53.559Z,2.20
2022-09-05T18:35:57.857Z,1.83
2022-09-05T18:38:50.902Z,1.80
2022-09-05T18:41:24.953Z,2.25
2022-09-05T18:44:12.290Z,3.72
2022-09-05T18:46:44.930Z,2.60
2022-09-05T18:50:22.220Z,2.53
2022-09-05T18:52:15.034Z,2.05
2022-09-05T18:54:44.105Z,2.03
2022-09-05T18:57:28.222Z,2.05
2022-09-05T19:00:06.315Z,2.10
2022-09-05T19:02:58.101Z,2.13
2022-09-05T19:05:40.418Z,1.85
2022-09-05T19:08:29.108Z,2.10
2022-09-05T19:11:27.795Z,2.00
2022-09-05T19:13:57.828Z,1.70
2022-09-05T19:16:43.134Z,2.00
2022-09-05T19:19:16.109Z,1.95
2022-09-05T19:22:16.239Z,2.60
2022-09-05T19:24:44.904Z,2.35
2022-09-05T19:28:57.058Z,2.15
2022-09-05T19:36:47.435Z,2.35
2022-09-05T19:36:57.370Z,2.75
2022-09-05T19:37:03.122Z,2.33
2022-09-05T19:38:23.103Z,2.20
2022-09-05T19:47:37.063Z,1.90
2022-09-05T19:47:51.744Z,2.20
2022-09-05T19:47:57.757Z,2.15
2022-09-05T19:49:13.250Z,2.50
2022-09-05T19:51:41.464Z,2.03
2022-09-05T19:54:22.066Z,1.75
2022-09-05T19:56:48.824Z,2.13
2022-09-05T19:59:33.895Z,2.58
2022-09-05T20:02:02.797Z,2.35
2022-09-05T20:06:58.264Z,2.20
2022-09-05T20:09:26.942Z,2.45
2022-09-05T20:11:59.860Z,1.88
2022-09-05T20:14:32.086Z,1.95
2022-09-05T20:17:17.772Z,1.98
2022-09-05T20:19:44.993Z,1.85
2022-09-05T20:22:46.833Z,2.55
2022-09-05T20:25:07.266Z,2.03
2022-09-05T20:27:33.964Z,2.35
2022-09-05T20:30:04.201Z,2.53
2022-09-05T20:32:39.815Z,2.47
2022-09-05T20:39:14.149Z,2.80
2022-09-05T20:43:12.339Z,2.65
2022-09-05T20:43:23.029Z,1.98
2022-09-05T20:43:53.331Z,2.08
2022-09-05T20:48:24.005Z,2.28
2022-09-05T20:54:21.140Z,2.55
2022-09-05T20:54:27.072Z,2.38
2022-09-05T20:58:19.872Z,1.90
2022-09-05T21:01:20.222Z,2.53
2022-09-05T21:03:53.133Z,2.22
2022-09-05T21:06:34.035Z,2.05
2022-09-05T21:09:25.556Z,3.53
2022-09-05T21:11:55.911Z,3.92
2022-09-05T21:14:24.299Z,3.00
2022-09-05T21:17:14.969Z,2.40
2022-09-05T21:19:43.653Z,2.40
2022-09-05T21:22:23.706Z,2.42
2022-09-05T21:25:08.772Z,2.60
2022-09-05T21:27:35.252Z,5.35
2022-09-05T21:30:23.502Z,3.33
2022-09-05T21:33:00.958Z,2.40
2022-09-05T21:35:35.282Z,2.38
2022-09-05T21:38:02.329Z,2.17
2022-09-05T21:40:28.940Z,2.40
2022-09-05T21:45:25.436Z,2.40
2022-09-05T21:47:43.540Z,2.13
2022-09-05T21:48:34.704Z,2.53
2022-09-05T21:51:11.102Z,2.40
2022-09-05T21:59:21.372Z,2.00
2022-09-05T21:59:22.794Z,5.38
2022-09-05T21:59:41.450Z,3.65
2022-09-05T22:02:13.495Z,2.45
2022-09-05T22:04:41.487Z,2.70
2022-09-05T22:07:15.696Z,3.00
2022-09-05T22:09:42.341Z,3.20
2022-09-05T22:12:30.350Z,3.00
2022-09-05T22:15:26.717Z,3.45
2022-09-05T22:17:48.513Z,3.50
2022-09-05T22:20:19.505Z,3.67
2022-09-05T22:22:55.622Z,3.10
2022-09-05T22:25:30.861Z,3.40
2022-09-05T22:28:06.163Z,3.30
2022-09-05T22:30:35.402Z,3.20
2022-09-05T22:33:05.361Z,3.17
2022-09-05T22:35:37.052Z,3.22
2022-09-05T22:38:11.810Z,2.80
2022-09-05T22:40:41.217Z,2.78
2022-09-05T22:43:09.788Z,2.83
2022-09-05T22:45:37.848Z,3.17
2022-09-05T22:48:10.065Z,2.92
2022-09-05T22:50:37.758Z,3.15
2022-09-05T22:53:06.971Z,2.85
2022-09-05T22:55:35.194Z,2.70
2022-09-05T22:58:02.730Z,2.55
2022-09-05T23:00:29.492Z,2.40
2022-09-05T23:03:00.314Z,2.63
2022-09-05T23:05:27.030Z,2.38
2022-09-05T23:07:57.682Z,2.42
2022-09-05T23:10:24.416Z,2.28
2022-09-05T23:12:51.008Z,2.55
2022-09-05T23:15:17.868Z,2.30
2022-09-05T23:17:45.109Z,2.00
2022-09-05T23:20:11.667Z,2.38
2022-09-05T23:22:38.966Z,2.20
2022-09-05T23:25:05.867Z,2.10
2022-09-05T23:27:36.787Z,2.05
2022-09-05T23:30:04.469Z,2.20
2022-09-05T23:32:31.017Z,1.88
2022-09-05T23:34:57.516Z,2.40
2022-09-05T23:37:24.146Z,2.10
2022-09-05T23:39:50.733Z,2.40
2022-09-05T23:42:17.283Z,1.90
2022-09-05T23:44:43.786Z,2.13
2022-09-05T23:47:10.483Z,1.75
2022-09-05T23:49:36.955Z,2.40
2022-09-05T23:52:03.560Z,2.25
2022-09-05T23:54:30.059Z,2.10
2022-09-05T23:56:57.277Z,2.03
2022-09-05T23:59:23.800Z,2.10
